Decoded Metar for LFMI (ISTRES in FRANCE) (IATA:N/A) | Meteo·Mobile Aviation Weather
aviador You're here:

LFMI Decoded Metar

ISTRES in FRANCE
Report Time2018-08-21 16:00:00
UTC Time2018-08-21 16:06:24
Flight Rules vfr VFR
Wind200° at 08 kt
W.Decomp.*RWY 15: 5.1 kt HW 6.1 kt RCW
W.Rank200° ranks 33
Current wind is above 200° avg. (6.9)
Visibility9999 m
Phenomena:N/A
Clouds:N/A
Expected CloudBase > 7,200 ft AGL from Temp-Dew spread
CeilingNone
Temp33°C (ISA +18)
Dew Point15°C (34% RH)
Heat Index32.6°C
AAT31.7°C
QNH1013 hPa
Density Alt2,375 ft
Elevation79 ft
Report Wrong Elevation
Raw Report
METAR LFMI 211600Z AUTO 20008KT 170V240 CAVOK 33/15 Q1013 NOSIG=

Extra information for LFMI:More info

Metar Taf Metar & Taf Last 4 Metars F.Rules Stats Wind Profile Meteogram Temp Stats Airport Information Weather charts Add Link Nearby VenuesMetar ALERT Operation Metar Decoded Social comments